Cabedelo, Brazil
Current Conditions -  °F | °C
As of 4:00 PM on Saturday 25 Oct 2014 (Local Time) from SBJP Reporting Station
Scattered Clouds Scattered Clouds  
Wind Chill: 81°   Ceiling: Unl
Heat Index: 82°   Visibility: 6mi
Dew Point: 64°   Wind: 12mph
Humidity: 58%   Direction: 110°ESE
Pressure: 29.91"   Gusts: NA
Location:  6.98°S, 34.83°W
Report Text: SBJP 251900Z 11010KT 9999 SCT025 27/18 Q1013
Loading
Personal Weather Stations






























Interactive Weather Map
Tropical Storm Tracking
New forecast layout! Learn more

10-Day Weather Forecast

Advertisements
Track Severe Weather on mobile